sensor_id;sensor_type;location;lat;lon;timestamp;pressure;altitude;pressure_sealevel;temperature;humidity
47742;BME280;33504;52.066;6.096;2023-02-16T00:00:44;102291.23;;;8.27;43.39
47742;BME280;33504;52.066;6.096;2023-02-16T00:03:14;102287.53;;;8.97;42.79
47742;BME280;33504;52.066;6.096;2023-02-16T00:05:42;102287.55;;;9.15;42.80
47742;BME280;33504;52.066;6.096;2023-02-16T00:08:09;102291.19;;;8.60;43.28
47742;BME280;33504;52.066;6.096;2023-02-16T00:10:38;102296.01;;;8.84;43.34
47742;BME280;33504;52.066;6.096;2023-02-16T00:13:17;102288.68;;;8.70;43.20
47742;BME280;33504;52.066;6.096;2023-02-16T00:15:46;102292.33;;;8.66;43.28
47742;BME280;33504;52.066;6.096;2023-02-16T00:18:16;102294.13;;;8.78;43.05
47742;BME280;33504;52.066;6.096;2023-02-16T00:20:43;102296.87;;;9.03;42.99
47742;BME280;33504;52.066;6.096;2023-02-16T00:23:10;102295.87;;;8.48;43.46
47742;BME280;33504;52.066;6.096;2023-02-16T00:25:37;102293.79;;;8.53;43.45
47742;BME280;33504;52.066;6.096;2023-02-16T00:28:16;102293.13;;;8.92;42.85
47742;BME280;33504;52.066;6.096;2023-02-16T00:30:43;102287.92;;;8.44;43.50
47742;BME280;33504;52.066;6.096;2023-02-16T00:33:13;102287.66;;;8.76;43.02
47742;BME280;33504;52.066;6.096;2023-02-16T00:35:41;102292.21;;;8.34;43.61
47742;BME280;33504;52.066;6.096;2023-02-16T00:38:09;102288.11;;;8.60;43.30
47742;BME280;33504;52.066;6.096;2023-02-16T00:40:36;102288.43;;;8.69;43.06
47742;BME280;33504;52.066;6.096;2023-02-16T00:43:04;102287.63;;;8.72;43.07
47742;BME280;33504;52.066;6.096;2023-02-16T00:45:36;102287.02;;;8.84;42.83
47742;BME280;33504;52.066;6.096;2023-02-16T00:48:03;102284.40;;;8.65;43.03
47742;BME280;33504;52.066;6.096;2023-02-16T00:50:32;102290.22;;;8.34;43.49
47742;BME280;33504;52.066;6.096;2023-02-16T00:53:00;102283.80;;;8.15;43.85
47742;BME280;33504;52.066;6.096;2023-02-16T00:55:29;102288.59;;;8.91;43.44
47742;BME280;33504;52.066;6.096;2023-02-16T00:58:04;102283.97;;;8.37;43.55
47742;BME280;33504;52.066;6.096;2023-02-16T01:00:34;102282.07;;;8.28;43.64
47742;BME280;33504;52.066;6.096;2023-02-16T01:03:06;102278.58;;;8.34;43.58
47742;BME280;33504;52.066;6.096;2023-02-16T01:05:34;102271.86;;;8.42;43.34
47742;BME280;33504;52.066;6.096;2023-02-16T01:08:04;102275.09;;;8.74;43.24
47742;BME280;33504;52.066;6.096;2023-02-16T01:10:33;102273.26;;;8.03;44.29
47742;BME280;33504;52.066;6.096;2023-02-16T01:13:01;102275.82;;;8.23;43.73
47742;BME280;33504;52.066;6.096;2023-02-16T01:15:28;102269.12;;;8.23;43.57
47742;BME280;33504;52.066;6.096;2023-02-16T01:17:56;102271.66;;;8.42;43.61
47742;BME280;33504;52.066;6.096;2023-02-16T01:20:24;102267.39;;;8.36;44.18
47742;BME280;33504;52.066;6.096;2023-02-16T01:22:52;102270.98;;;8.58;43.76
47742;BME280;33504;52.066;6.096;2023-02-16T01:25:19;102265.04;;;8.20;43.86
47742;BME280;33504;52.066;6.096;2023-02-16T01:27:47;102260.57;;;8.28;43.45
47742;BME280;33504;52.066;6.096;2023-02-16T01:30:17;102264.55;;;8.14;43.63
47742;BME280;33504;52.066;6.096;2023-02-16T01:32:45;102262.77;;;8.45;43.45
47742;BME280;33504;52.066;6.096;2023-02-16T01:35:12;102261.28;;;7.94;43.96
47742;BME280;33504;52.066;6.096;2023-02-16T01:37:39;102265.95;;;8.19;43.83
47742;BME280;33504;52.066;6.096;2023-02-16T01:40:17;102258.60;;;8.51;43.85
47742;BME280;33504;52.066;6.096;2023-02-16T01:42:50;102256.23;;;8.35;43.58
47742;BME280;33504;52.066;6.096;2023-02-16T01:45:21;102257.86;;;8.11;43.90
47742;BME280;33504;52.066;6.096;2023-02-16T01:47:52;102251.18;;;7.75;44.11
47742;BME280;33504;52.066;6.096;2023-02-16T01:50:23;102247.57;;;8.49;43.82
47742;BME280;33504;52.066;6.096;2023-02-16T01:52:54;102248.78;;;7.96;44.19
47742;BME280;33504;52.066;6.096;2023-02-16T01:55:25;102249.34;;;8.07;43.94
47742;BME280;33504;52.066;6.096;2023-02-16T01:57:57;102242.59;;;8.40;43.80
47742;BME280;33504;52.066;6.096;2023-02-16T02:00:29;102244.98;;;8.00;44.04
47742;BME280;33504;52.066;6.096;2023-02-16T02:03:00;102235.12;;;7.82;44.38
47742;BME280;33504;52.066;6.096;2023-02-16T02:05:30;102229.47;;;8.48;43.69
47742;BME280;33504;52.066;6.096;2023-02-16T02:08:06;102230.40;;;8.41;43.30
47742;BME280;33504;52.066;6.096;2023-02-16T02:10:44;102235.17;;;8.20;43.99
47742;BME280;33504;52.066;6.096;2023-02-16T02:13:20;102238.79;;;8.28;44.00
47742;BME280;33504;52.066;6.096;2023-02-16T02:15:48;102233.99;;;8.45;43.70
47742;BME280;33504;52.066;6.096;2023-02-16T02:18:16;102234.82;;;8.12;43.42
47742;BME280;33504;52.066;6.096;2023-02-16T02:20:56;102232.52;;;8.11;43.39
47742;BME280;33504;52.066;6.096;2023-02-16T02:23:42;102234.59;;;8.27;43.95
47742;BME280;33504;52.066;6.096;2023-02-16T02:27:06;102229.33;;;8.60;44.08
47742;BME280;33504;52.066;6.096;2023-02-16T02:29:58;102224.69;;;8.51;43.50
47742;BME280;33504;52.066;6.096;2023-02-16T02:32:39;102224.62;;;8.06;43.42
47742;BME280;33504;52.066;6.096;2023-02-16T02:35:18;102218.20;;;8.61;43.31
47742;BME280;33504;52.066;6.096;2023-02-16T02:37:53;102224.62;;;8.51;42.97
47742;BME280;33504;52.066;6.096;2023-02-16T02:40:32;102225.24;;;8.56;43.41
47742;BME280;33504;52.066;6.096;2023-02-16T02:43:12;102222.21;;;7.62;43.99
47742;BME280;33504;52.066;6.096;2023-02-16T02:45:44;102222.03;;;7.78;43.88
47742;BME280;33504;52.066;6.096;2023-02-16T02:48:12;102219.39;;;8.25;43.85
47742;BME280;33504;52.066;6.096;2023-02-16T02:50:44;102218.73;;;8.23;43.88
47742;BME280;33504;52.066;6.096;2023-02-16T02:53:13;102213.50;;;7.95;44.27
47742;BME280;33504;52.066;6.096;2023-02-16T02:55:44;102215.75;;;7.69;44.65
47742;BME280;33504;52.066;6.096;2023-02-16T02:58:14;102213.25;;;7.98;44.20
47742;BME280;33504;52.066;6.096;2023-02-16T03:00:43;102216.27;;;7.89;44.40
47742;BME280;33504;52.066;6.096;2023-02-16T03:03:14;102211.93;;;7.60;44.92
47742;BME280;33504;52.066;6.096;2023-02-16T03:05:45;102212.23;;;7.63;44.73
47742;BME280;33504;52.066;6.096;2023-02-16T03:08:15;102207.37;;;7.74;44.70
47742;BME280;33504;52.066;6.096;2023-02-16T03:10:47;102206.91;;;8.16;44.72
47742;BME280;33504;52.066;6.096;2023-02-16T03:13:19;102204.60;;;7.78;45.01
47742;BME280;33504;52.066;6.096;2023-02-16T03:15:48;102201.80;;;7.76;44.71
47742;BME280;33504;52.066;6.096;2023-02-16T03:18:16;102204.30;;;7.47;45.12
47742;BME280;33504;52.066;6.096;2023-02-16T03:20:45;102198.80;;;7.73;44.72
47742;BME280;33504;52.066;6.096;2023-02-16T03:23:12;102201.63;;;7.72;44.27
47742;BME280;33504;52.066;6.096;2023-02-16T03:25:40;102196.89;;;7.74;44.71
47742;BME280;33504;52.066;6.096;2023-02-16T03:28:09;102195.06;;;7.73;44.77
47742;BME280;33504;52.066;6.096;2023-02-16T03:30:38;102191.90;;;7.56;44.89
47742;BME280;33504;52.066;6.096;2023-02-16T03:33:06;102190.45;;;7.68;44.81
47742;BME280;33504;52.066;6.096;2023-02-16T03:35:34;102188.57;;;8.10;44.17
47742;BME280;33504;52.066;6.096;2023-02-16T03:38:02;102190.18;;;7.90;44.41
47742;BME280;33504;52.066;6.096;2023-02-16T03:40:31;102193.84;;;7.97;44.31
47742;BME280;33504;52.066;6.096;2023-02-16T03:43:01;102187.46;;;8.15;44.06
47742;BME280;33504;52.066;6.096;2023-02-16T03:45:28;102189.39;;;7.95;44.23
47742;BME280;33504;52.066;6.096;2023-02-16T03:47:56;102186.95;;;7.78;44.55
47742;BME280;33504;52.066;6.096;2023-02-16T03:50:23;102185.26;;;7.76;44.58
47742;BME280;33504;52.066;6.096;2023-02-16T03:52:50;102187.28;;;7.63;44.35
47742;BME280;33504;52.066;6.096;2023-02-16T03:55:18;102180.14;;;7.60;44.78
47742;BME280;33504;52.066;6.096;2023-02-16T03:57:45;102189.16;;;7.37;45.07
47742;BME280;33504;52.066;6.096;2023-02-16T04:00:13;102182.09;;;7.69;44.66
47742;BME280;33504;52.066;6.096;2023-02-16T04:02:40;102181.57;;;7.60;44.76
47742;BME280;33504;52.066;6.096;2023-02-16T04:05:07;102176.56;;;6.94;45.73
47742;BME280;33504;52.066;6.096;2023-02-16T04:07:35;102179.29;;;7.48;45.06
47742;BME280;33504;52.066;6.096;2023-02-16T04:10:02;102183.34;;;7.68;44.67
47742;BME280;33504;52.066;6.096;2023-02-16T04:12:29;102187.74;;;7.34;45.17
47742;BME280;33504;52.066;6.096;2023-02-16T04:14:56;102193.10;;;7.76;44.54
47742;BME280;33504;52.066;6.096;2023-02-16T04:17:24;102185.44;;;7.64;44.73
47742;BME280;33504;52.066;6.096;2023-02-16T04:19:51;102181.74;;;7.24;45.37
47742;BME280;33504;52.066;6.096;2023-02-16T04:22:19;102185.83;;;7.54;44.88
47742;BME280;33504;52.066;6.096;2023-02-16T04:24:46;102186.64;;;7.47;45.01
47742;BME280;33504;52.066;6.096;2023-02-16T04:27:14;102188.70;;;8.17;44.58
47742;BME280;33504;52.066;6.096;2023-02-16T04:29:41;102183.72;;;7.69;45.12
47742;BME280;33504;52.066;6.096;2023-02-16T04:32:09;102185.06;;;7.67;44.73
47742;BME280;33504;52.066;6.096;2023-02-16T04:34:36;102187.14;;;7.49;44.98
47742;BME280;33504;52.066;6.096;2023-02-16T04:37:03;102194.65;;;7.83;44.52
47742;BME280;33504;52.066;6.096;2023-02-16T04:39:30;102191.51;;;8.01;44.29
47742;BME280;33504;52.066;6.096;2023-02-16T04:41:58;102194.34;;;7.31;45.43
47742;BME280;33504;52.066;6.096;2023-02-16T04:44:25;102191.07;;;7.33;45.37
47742;BME280;33504;52.066;6.096;2023-02-16T04:46:52;102188.81;;;7.34;45.72
47742;BME280;33504;52.066;6.096;2023-02-16T04:49:19;102194.77;;;7.48;45.57
47742;BME280;33504;52.066;6.096;2023-02-16T04:51:47;102189.30;;;7.54;45.59
47742;BME280;33504;52.066;6.096;2023-02-16T04:54:14;102183.11;;;7.38;45.34
47742;BME280;33504;52.066;6.096;2023-02-16T04:56:43;102190.68;;;7.12;45.86
47742;BME280;33504;52.066;6.096;2023-02-16T04:59:10;102186.32;;;7.71;45.19
47742;BME280;33504;52.066;6.096;2023-02-16T05:01:38;102183.37;;;7.19;45.65
47742;BME280;33504;52.066;6.096;2023-02-16T05:04:06;102182.85;;;7.24;45.71
47742;BME280;33504;52.066;6.096;2023-02-16T05:06:33;102177.22;;;7.58;45.22
47742;BME280;33504;52.066;6.096;2023-02-16T05:09:01;102181.97;;;7.54;45.19
47742;BME280;33504;52.066;6.096;2023-02-16T05:11:28;102183.47;;;7.42;45.43
47742;BME280;33504;52.066;6.096;2023-02-16T05:13:55;102183.09;;;7.85;44.65
47742;BME280;33504;52.066;6.096;2023-02-16T05:16:23;102173.45;;;7.47;45.22
47742;BME280;33504;52.066;6.096;2023-02-16T05:18:51;102183.25;;;7.33;45.50
47742;BME280;33504;52.066;6.096;2023-02-16T05:21:18;102190.68;;;7.30;45.57
47742;BME280;33504;52.066;6.096;2023-02-16T05:23:45;102187.90;;;7.55;45.13
47742;BME280;33504;52.066;6.096;2023-02-16T05:26:12;102186.72;;;7.67;45.27
47742;BME280;33504;52.066;6.096;2023-02-16T05:28:39;102180.22;;;7.27;45.52
47742;BME280;33504;52.066;6.096;2023-02-16T05:31:06;102180.09;;;7.57;45.34
47742;BME280;33504;52.066;6.096;2023-02-16T05:33:34;102182.26;;;7.70;45.22
47742;BME280;33504;52.066;6.096;2023-02-16T05:36:01;102177.95;;;7.42;45.35
47742;BME280;33504;52.066;6.096;2023-02-16T05:38:28;102178.00;;;7.91;44.98
47742;BME280;33504;52.066;6.096;2023-02-16T05:40:55;102170.20;;;7.51;45.22
47742;BME280;33504;52.066;6.096;2023-02-16T05:43:23;102171.19;;;7.73;44.76
47742;BME280;33504;52.066;6.096;2023-02-16T05:45:50;102175.16;;;8.08;44.32
47742;BME280;33504;52.066;6.096;2023-02-16T05:48:18;102172.38;;;7.69;44.85
47742;BME280;33504;52.066;6.096;2023-02-16T05:50:45;102168.79;;;7.87;44.97
47742;BME280;33504;52.066;6.096;2023-02-16T05:53:12;102168.60;;;7.83;44.67
47742;BME280;33504;52.066;6.096;2023-02-16T05:55:39;102170.72;;;7.16;45.70
47742;BME280;33504;52.066;6.096;2023-02-16T05:58:06;102169.21;;;7.67;44.94
47742;BME280;33504;52.066;6.096;2023-02-16T06:00:34;102167.48;;;7.69;44.53
47742;BME280;33504;52.066;6.096;2023-02-16T06:03:01;102160.46;;;8.17;44.59
47742;BME280;33504;52.066;6.096;2023-02-16T06:05:28;102168.94;;;8.10;44.32
47742;BME280;33504;52.066;6.096;2023-02-16T06:07:55;102170.74;;;7.99;44.43
47742;BME280;33504;52.066;6.096;2023-02-16T06:10:22;102168.37;;;8.06;44.36
47742;BME280;33504;52.066;6.096;2023-02-16T06:12:49;102165.09;;;7.93;44.51
47742;BME280;33504;52.066;6.096;2023-02-16T06:15:16;102155.60;;;8.31;44.32
47742;BME280;33504;52.066;6.096;2023-02-16T06:17:44;102162.08;;;8.16;44.21
47742;BME280;33504;52.066;6.096;2023-02-16T06:20:11;102173.25;;;8.37;44.19
47742;BME280;33504;52.066;6.096;2023-02-16T06:22:38;102190.62;;;7.43;44.59
47742;BME280;33504;52.066;6.096;2023-02-16T06:25:05;102182.87;;;8.02;44.34
47742;BME280;33504;52.066;6.096;2023-02-16T06:27:33;102170.58;;;8.19;44.07
47742;BME280;33504;52.066;6.096;2023-02-16T06:30:00;102162.39;;;8.25;44.02
47742;BME280;33504;52.066;6.096;2023-02-16T06:32:27;102166.92;;;8.20;44.17
47742;BME280;33504;52.066;6.096;2023-02-16T06:34:54;102174.49;;;8.05;44.40
47742;BME280;33504;52.066;6.096;2023-02-16T06:37:22;102181.74;;;8.28;44.18
47742;BME280;33504;52.066;6.096;2023-02-16T06:39:49;102181.45;;;8.27;44.16
47742;BME280;33504;52.066;6.096;2023-02-16T06:42:16;102180.46;;;8.45;43.92
47742;BME280;33504;52.066;6.096;2023-02-16T06:44:43;102186.83;;;8.15;44.37
47742;BME280;33504;52.066;6.096;2023-02-16T06:47:11;102187.19;;;7.67;44.32
47742;BME280;33504;52.066;6.096;2023-02-16T06:49:39;102195.37;;;8.05;44.57
47742;BME280;33504;52.066;6.096;2023-02-16T06:52:06;102190.25;;;8.01;44.65
47742;BME280;33504;52.066;6.096;2023-02-16T06:54:33;102177.21;;;8.30;44.19
47742;BME280;33504;52.066;6.096;2023-02-16T06:57:00;102173.49;;;8.07;44.54
47742;BME280;33504;52.066;6.096;2023-02-16T06:59:27;102176.96;;;7.98;44.73
47742;BME280;33504;52.066;6.096;2023-02-16T07:01:53;102178.81;;;7.49;44.97
47742;BME280;33504;52.066;6.096;2023-02-16T07:04:20;102176.09;;;8.21;44.42
47742;BME280;33504;52.066;6.096;2023-02-16T07:06:48;102181.42;;;8.26;44.42
47742;BME280;33504;52.066;6.096;2023-02-16T07:09:15;102183.65;;;8.33;44.26
47742;BME280;33504;52.066;6.096;2023-02-16T07:11:43;102187.45;;;7.75;44.71
47742;BME280;33504;52.066;6.096;2023-02-16T07:14:10;102194.41;;;7.93;45.05
47742;BME280;33504;52.066;6.096;2023-02-16T07:16:37;102203.12;;;7.95;44.91
47742;BME280;33504;52.066;6.096;2023-02-16T07:19:04;102198.94;;;7.96;44.99
47742;BME280;33504;52.066;6.096;2023-02-16T07:21:32;102193.63;;;8.15;44.70
47742;BME280;33504;52.066;6.096;2023-02-16T07:23:59;102189.18;;;7.94;45.10
47742;BME280;33504;52.066;6.096;2023-02-16T07:26:27;102189.80;;;8.14;44.70
47742;BME280;33504;52.066;6.096;2023-02-16T07:28:54;102188.03;;;8.34;44.45
47742;BME280;33504;52.066;6.096;2023-02-16T07:31:21;102191.37;;;8.35;44.45
47742;BME280;33504;52.066;6.096;2023-02-16T07:33:49;102199.79;;;8.14;44.73
47742;BME280;33504;52.066;6.096;2023-02-16T07:36:16;102193.35;;;7.99;44.65
47742;BME280;33504;52.066;6.096;2023-02-16T07:38:45;102191.36;;;8.15;44.94
47742;BME280;33504;52.066;6.096;2023-02-16T07:41:13;102190.21;;;8.22;44.78
47742;BME280;33504;52.066;6.096;2023-02-16T07:43:40;102189.13;;;8.03;45.18
47742;BME280;33504;52.066;6.096;2023-02-16T07:46:07;102194.72;;;7.95;45.43
47742;BME280;33504;52.066;6.096;2023-02-16T07:48:35;102197.77;;;7.70;45.42
47742;BME280;33504;52.066;6.096;2023-02-16T07:51:02;102197.43;;;7.97;45.40
47742;BME280;33504;52.066;6.096;2023-02-16T07:53:29;102197.72;;;7.84;45.35
47742;BME280;33504;52.066;6.096;2023-02-16T07:55:56;102203.14;;;7.94;45.64
47742;BME280;33504;52.066;6.096;2023-02-16T07:58:23;102203.73;;;7.79;45.14
47742;BME280;33504;52.066;6.096;2023-02-16T08:00:51;102206.49;;;8.43;44.88
47742;BME280;33504;52.066;6.096;2023-02-16T08:03:19;102201.29;;;8.59;44.66
47742;BME280;33504;52.066;6.096;2023-02-16T08:05:46;102202.70;;;8.44;44.97
47742;BME280;33504;52.066;6.096;2023-02-16T08:08:13;102207.95;;;7.89;45.01
47742;BME280;33504;52.066;6.096;2023-02-16T08:10:40;102216.11;;;8.57;44.96
47742;BME280;33504;52.066;6.096;2023-02-16T08:13:07;102214.70;;;8.75;44.62
47742;BME280;33504;52.066;6.096;2023-02-16T08:15:34;102219.17;;;8.56;44.25
47742;BME280;33504;52.066;6.096;2023-02-16T08:18:01;102226.94;;;8.92;44.01
47742;BME280;33504;52.066;6.096;2023-02-16T08:20:28;102228.35;;;8.96;44.42
47742;BME280;33504;52.066;6.096;2023-02-16T08:22:55;102230.33;;;8.65;44.28
47742;BME280;33504;52.066;6.096;2023-02-16T08:25:22;102237.80;;;8.16;45.28
47742;BME280;33504;52.066;6.096;2023-02-16T08:27:49;102227.68;;;8.63;44.73
47742;BME280;33504;52.066;6.096;2023-02-16T08:30:16;102226.38;;;8.27;45.03
47742;BME280;33504;52.066;6.096;2023-02-16T08:32:43;102227.53;;;8.64;44.88
47742;BME280;33504;52.066;6.096;2023-02-16T08:35:10;102233.02;;;8.83;44.26
47742;BME280;33504;52.066;6.096;2023-02-16T08:37:38;102231.43;;;8.57;44.72
47742;BME280;33504;52.066;6.096;2023-02-16T08:40:07;102235.90;;;8.98;44.18
47742;BME280;33504;52.066;6.096;2023-02-16T08:42:36;102228.33;;;8.58;44.73
47742;BME280;33504;52.066;6.096;2023-02-16T08:45:04;102235.95;;;8.64;44.54
47742;BME280;33504;52.066;6.096;2023-02-16T08:47:31;102231.56;;;8.70;44.46
47742;BME280;33504;52.066;6.096;2023-02-16T08:49:58;102229.67;;;8.67;44.58
47742;BME280;33504;52.066;6.096;2023-02-16T08:52:26;102234.03;;;8.62;44.62
47742;BME280;33504;52.066;6.096;2023-02-16T08:54:54;102238.36;;;8.61;44.79
47742;BME280;33504;52.066;6.096;2023-02-16T08:57:21;102235.41;;;8.81;44.58
47742;BME280;33504;52.066;6.096;2023-02-16T08:59:49;102238.43;;;8.48;44.79
47742;BME280;33504;52.066;6.096;2023-02-16T09:02:16;102236.24;;;9.10;44.23
47742;BME280;33504;52.066;6.096;2023-02-16T09:04:43;102232.32;;;8.78;44.44
47742;BME280;33504;52.066;6.096;2023-02-16T09:07:10;102235.31;;;8.88;44.59
47742;BME280;33504;52.066;6.096;2023-02-16T09:09:37;102236.52;;;9.23;44.16
47742;BME280;33504;52.066;6.096;2023-02-16T09:12:05;102236.84;;;9.32;44.13
47742;BME280;33504;52.066;6.096;2023-02-16T09:14:31;102241.83;;;9.33;44.02
47742;BME280;33504;52.066;6.096;2023-02-16T09:16:58;102247.24;;;9.14;43.98
47742;BME280;33504;52.066;6.096;2023-02-16T09:19:25;102251.68;;;9.05;44.52
47742;BME280;33504;52.066;6.096;2023-02-16T09:21:52;102248.53;;;9.10;44.57
47742;BME280;33504;52.066;6.096;2023-02-16T09:24:19;102247.81;;;9.48;44.11
47742;BME280;33504;52.066;6.096;2023-02-16T09:26:47;102245.23;;;9.58;44.06
47742;BME280;33504;52.066;6.096;2023-02-16T09:29:14;102251.05;;;9.11;44.35
47742;BME280;33504;52.066;6.096;2023-02-16T09:31:42;102252.15;;;8.86;44.70
47742;BME280;33504;52.066;6.096;2023-02-16T09:34:15;102249.16;;;8.82;44.92
47742;BME280;33504;52.066;6.096;2023-02-16T09:36:43;102253.57;;;9.08;44.99
47742;BME280;33504;52.066;6.096;2023-02-16T09:39:10;102252.68;;;9.22;45.00
47742;BME280;33504;52.066;6.096;2023-02-16T09:41:54;102253.02;;;9.21;44.67
47742;BME280;33504;52.066;6.096;2023-02-16T09:44:29;102258.42;;;9.13;44.60
47742;BME280;33504;52.066;6.096;2023-02-16T09:47:04;102253.61;;;9.60;44.45
47742;BME280;33504;52.066;6.096;2023-02-16T09:49:38;102255.43;;;9.53;44.71
47742;BME280;33504;52.066;6.096;2023-02-16T09:52:15;102259.47;;;9.57;44.84
47742;BME280;33504;52.066;6.096;2023-02-16T09:54:47;102257.91;;;9.70;44.75
47742;BME280;33504;52.066;6.096;2023-02-16T09:57:21;102253.90;;;9.70;44.81
47742;BME280;33504;52.066;6.096;2023-02-16T09:59:57;102261.99;;;9.40;44.96
47742;BME280;33504;52.066;6.096;2023-02-16T10:02:33;102258.49;;;9.59;45.12
47742;BME280;33504;52.066;6.096;2023-02-16T10:05:15;102251.19;;;9.03;45.93
47742;BME280;33504;52.066;6.096;2023-02-16T10:07:52;102252.20;;;9.54;45.74
47742;BME280;33504;52.066;6.096;2023-02-16T10:10:24;102252.32;;;9.31;45.61
47742;BME280;33504;52.066;6.096;2023-02-16T10:12:56;102259.65;;;9.58;45.74
47742;BME280;33504;52.066;6.096;2023-02-16T10:15:27;102254.89;;;9.63;45.80
47742;BME280;33504;52.066;6.096;2023-02-16T10:17:57;102244.81;;;9.63;45.83
47742;BME280;33504;52.066;6.096;2023-02-16T10:20:30;102244.81;;;9.63;45.60
47742;BME280;33504;52.066;6.096;2023-02-16T10:23:06;102253.20;;;9.65;45.97
47742;BME280;33504;52.066;6.096;2023-02-16T10:25:40;102250.08;;;9.64;46.06
47742;BME280;33504;52.066;6.096;2023-02-16T10:28:15;102245.07;;;10.04;46.04
47742;BME280;33504;52.066;6.096;2023-02-16T10:30:48;102242.72;;;8.95;47.48
47742;BME280;33504;52.066;6.096;2023-02-16T10:33:31;102239.82;;;9.40;47.06
47742;BME280;33504;52.066;6.096;2023-02-16T10:36:14;102240.03;;;9.09;47.20
47742;BME280;33504;52.066;6.096;2023-02-16T10:38:46;102242.26;;;9.91;46.70
47742;BME280;33504;52.066;6.096;2023-02-16T10:41:26;102239.82;;;9.58;46.85
47742;BME280;33504;52.066;6.096;2023-02-16T10:44:00;102241.86;;;9.86;46.84
47742;BME280;33504;52.066;6.096;2023-02-16T10:46:33;102240.36;;;9.76;46.92
47742;BME280;33504;52.066;6.096;2023-02-16T10:49:02;102238.01;;;10.13;46.88
47742;BME280;33504;52.066;6.096;2023-02-16T10:51:32;102244.79;;;9.86;47.19
47742;BME280;33504;52.066;6.096;2023-02-16T10:54:06;102254.04;;;10.27;47.15
47742;BME280;33504;52.066;6.096;2023-02-16T10:56:43;102255.91;;;10.24;47.35
47742;BME280;33504;52.066;6.096;2023-02-16T10:59:16;102253.20;;;10.13;47.26
47742;BME280;33504;52.066;6.096;2023-02-16T11:01:47;102250.65;;;9.96;47.88
47742;BME280;33504;52.066;6.096;2023-02-16T11:04:33;102246.30;;;9.82;48.03
47742;BME280;33504;52.066;6.096;2023-02-16T11:07:04;102254.48;;;9.86;48.22
47742;BME280;33504;52.066;6.096;2023-02-16T11:09:31;102256.47;;;9.61;48.64
47742;BME280;33504;52.066;6.096;2023-02-16T11:11:59;102257.50;;;9.54;49.20
47742;BME280;33504;52.066;6.096;2023-02-16T11:14:29;102252.99;;;9.72;49.45
47742;BME280;33504;52.066;6.096;2023-02-16T11:17:06;102243.43;;;9.60;49.36
47742;BME280;33504;52.066;6.096;2023-02-16T11:19:34;102226.62;;;9.38;49.38
47742;BME280;33504;52.066;6.096;2023-02-16T11:22:03;102231.93;;;9.25;50.81
47742;BME280;33504;52.066;6.096;2023-02-16T11:24:32;102230.48;;;9.24;50.06
47742;BME280;33504;52.066;6.096;2023-02-16T11:27:03;102233.72;;;8.95;50.81
47742;BME280;33504;52.066;6.096;2023-02-16T11:29:31;102243.17;;;9.31;50.80
47742;BME280;33504;52.066;6.096;2023-02-16T11:32:04;102250.90;;;9.55;50.60
47742;BME280;33504;52.066;6.096;2023-02-16T11:34:34;102252.10;;;9.29;50.42
47742;BME280;33504;52.066;6.096;2023-02-16T11:37:05;102253.53;;;9.85;50.05
47742;BME280;33504;52.066;6.096;2023-02-16T11:39:36;102250.49;;;9.26;50.89
47742;BME280;33504;52.066;6.096;2023-02-16T11:42:07;102256.85;;;10.03;50.43
47742;BME280;33504;52.066;6.096;2023-02-16T11:44:37;102249.55;;;9.57;50.54
47742;BME280;33504;52.066;6.096;2023-02-16T11:47:08;102248.18;;;9.92;50.25
47742;BME280;33504;52.066;6.096;2023-02-16T11:49:46;102243.35;;;9.75;50.50
47742;BME280;33504;52.066;6.096;2023-02-16T11:52:24;102238.31;;;9.43;50.52
47742;BME280;33504;52.066;6.096;2023-02-16T11:54:54;102239.18;;;9.81;50.22
47742;BME280;33504;52.066;6.096;2023-02-16T11:57:24;102237.24;;;9.75;50.56
47742;BME280;33504;52.066;6.096;2023-02-16T11:59:52;102236.08;;;9.99;50.53
47742;BME280;33504;52.066;6.096;2023-02-16T12:02:34;102230.87;;;9.70;51.15
47742;BME280;33504;52.066;6.096;2023-02-16T12:05:18;102224.81;;;9.71;50.65
47742;BME280;33504;52.066;6.096;2023-02-16T12:07:54;102221.82;;;9.39;51.25
47742;BME280;33504;52.066;6.096;2023-02-16T12:10:34;102220.06;;;9.56;50.95
47742;BME280;33504;52.066;6.096;2023-02-16T12:13:12;102220.09;;;9.54;51.80
47742;BME280;33504;52.066;6.096;2023-02-16T12:15:47;102213.56;;;9.64;51.57
47742;BME280;33504;52.066;6.096;2023-02-16T12:18:26;102206.01;;;9.37;51.77
47742;BME280;33504;52.066;6.096;2023-02-16T12:21:03;102202.15;;;9.87;51.11
47742;BME280;33504;52.066;6.096;2023-02-16T12:23:41;102205.99;;;8.98;52.32
47742;BME280;33504;52.066;6.096;2023-02-16T12:26:25;102200.79;;;9.53;51.68
47742;BME280;33504;52.066;6.096;2023-02-16T12:29:02;102202.09;;;9.38;52.09
47742;BME280;33504;52.066;6.096;2023-02-16T12:31:38;102188.86;;;9.78;51.54
47742;BME280;33504;52.066;6.096;2023-02-16T12:34:22;102185.60;;;9.77;51.09
47742;BME280;33504;52.066;6.096;2023-02-16T12:36:58;102174.78;;;9.95;51.74
47742;BME280;33504;52.066;6.096;2023-02-16T12:39:30;102176.21;;;10.11;51.54
47742;BME280;33504;52.066;6.096;2023-02-16T12:42:21;102174.95;;;9.81;51.63
47742;BME280;33504;52.066;6.096;2023-02-16T12:44:55;102175.62;;;10.37;50.89
47742;BME280;33504;52.066;6.096;2023-02-16T12:47:26;102167.63;;;10.01;51.11
47742;BME280;33504;52.066;6.096;2023-02-16T12:50:00;102163.28;;;10.12;50.98
47742;BME280;33504;52.066;6.096;2023-02-16T12:52:36;102155.93;;;10.24;50.92
47742;BME280;33504;52.066;6.096;2023-02-16T12:55:17;102144.06;;;10.48;50.86
47742;BME280;33504;52.066;6.096;2023-02-16T12:57:51;102141.10;;;10.71;50.55
47742;BME280;33504;52.066;6.096;2023-02-16T13:00:25;102139.00;;;10.93;49.76
47742;BME280;33504;52.066;6.096;2023-02-16T13:03:06;102132.56;;;11.37;48.66
47742;BME280;33504;52.066;6.096;2023-02-16T13:05:37;102136.35;;;11.33;49.30
47742;BME280;33504;52.066;6.096;2023-02-16T13:08:11;102128.36;;;10.68;49.00
47742;BME280;33504;52.066;6.096;2023-02-16T13:10:54;102122.68;;;11.13;48.98
47742;BME280;33504;52.066;6.096;2023-02-16T13:13:25;102113.96;;;10.71;49.18
47742;BME280;33504;52.066;6.096;2023-02-16T13:16:00;102110.45;;;10.95;49.73